Etusivu
METAR-TAF:

METAR-TAF

Lentoasemat :

Maiduguri, Nigeria

Leveyspiiri: 11-51N, Pituuspiiri: 013-05E, korkeus merenpinnasta: 354 m

METAR: puuttuu

Aika: 06:57 (05:57 UTC)

Sääennuste

Tämä raportti tehtiin 57 minuuttia sitten, kello 05.00 UTC
Ennuste voimassa 02. päivästä klo 06 UTC - 03. päivään klo 12 UTC
Tuuli 8 kn idästä/koillisesta
Näkyvyys: 5000 m
usvaa
Tulossa
02. päivästä klo 07 UTC - 02. päivään klo 08 UTC
Tuuli 10 kn lännestä/lounaasta
Näkyvyys 10 km tai enemmän
ei pilviä alle 1500 m:ssä eikä cumulonimbus-pilviä

TAF: DNMA 020500Z 0206/0312 07008KT 5000 HZ NSC BECMG 0207/0208 24010KT CAVOK

Säähavainnot ja -ennusteet yli 4000 lentoasemalta (METAR- ja TAF-raportit).

Käytössä olevat sääasemat on merkitty karttaan keltaisilla ja punaisilla pisteillä.

Aseta hiiri pisteen päälle nähdäksesi sääaseman nimen.

Klikkaa sitten nähdäksesi säähavainnot ja -ennusteet.

Kartan vaihtaminen: klikkaa mustalla rastilla varustettuja vihreitä pisteitä, niin voit zoomata sisään; viivalla varustettua vihreää pistettä, niin voit zoomata ulos tai vihreitä nuolia, niin pääset viereisille kartoille.


METAR-TAF: